Time;durP1;ratioP1;P1;durP2;ratioP2;P2;SDS_P1;SDS_P2;PMS_P1;PMS_P2;Temp;Humidity;BMP_temperature;BMP_pressure;BME280_temperature;BME280_humidity;BME280_pressure;Samples;Min_cycle;Max_cycle;Signal;HPM_P1;HPM_P2
2022/01/25 00:08:41;;;;;;;10.07;6.70;;;;;;;-5.49;64.39;101659.19;1600560;87;21571;-65
2022/01/25 00:24:18;;;;;;;9.40;6.60;;;;;;;-5.49;65.00;101658.72;1594478;88;21096;-67
2022/01/25 00:26:48;;;;;;;7.17;4.90;;;;;;;-5.49;65.56;101655.28;1631545;87;21063;-63
2022/01/25 00:29:14;;;;;;;12.20;6.43;;;;;;;-5.58;65.00;101658.20;1619092;87;21085;-64
2022/01/25 00:31:41;;;;;;;10.07;6.47;;;;;;;-5.63;65.03;101660.09;1612731;87;21458;-61
2022/01/25 00:34:08;;;;;;;11.37;6.33;;;;;;;-5.65;65.01;101658.88;1620383;86;21173;-62
2022/01/25 00:36:35;;;;;;;12.20;7.07;;;;;;;-5.66;65.33;101649.36;1614877;87;21076;-60
2022/01/25 00:39:05;;;;;;;12.07;7.47;;;;;;;-5.67;65.58;101641.16;1611028;87;21004;-61
2022/01/25 00:41:32;;;;;;;8.67;6.03;;;;;;;-5.67;65.45;101639.86;1612042;87;21548;-63
2022/01/25 00:44:00;;;;;;;10.57;6.30;;;;;;;-5.65;65.44;101641.11;1594690;88;21055;-65
2022/01/25 00:46:26;;;;;;;10.90;7.10;;;;;;;-5.68;65.76;101645.52;1609152;87;21568;-66
2022/01/25 00:48:56;;;;;;;8.60;5.67;;;;;;;-5.71;65.98;101634.38;1621680;87;20981;-65
2022/01/25 00:54:27;;;;;;;11.33;7.03;;;;;;;-5.70;65.98;101621.34;1604079;87;21097;-64
2022/01/25 00:56:44;;;;;;;8.63;6.23;;;;;;;-5.70;65.89;101627.84;1612177;87;21091;-68
2022/01/25 00:59:15;;;;;;;9.17;6.90;;;;;;;-5.69;66.13;101631.28;1612648;88;21087;-64
2022/01/25 01:01:42;;;;;;;10.07;6.63;;;;;;;-5.64;65.53;101634.58;1625863;86;21001;-64
2022/01/25 01:04:10;;;;;;;9.17;5.93;;;;;;;-5.63;64.70;101622.00;1639256;86;21568;-63
2022/01/25 01:06:40;;;;;;;10.50;7.27;;;;;;;-5.63;64.90;101627.63;1641748;86;21088;-63
2022/01/25 01:09:10;;;;;;;10.73;6.27;;;;;;;-5.65;64.72;101619.03;1632667;86;20996;-63
2022/01/25 01:11:49;;;;;;;12.10;7.87;;;;;;;-5.65;64.62;101622.93;1632648;86;21566;-63
2022/01/25 01:43:56;;;;;;;11.13;6.27;;;;;;;-5.80;64.30;101616.08;1626558;86;21606;-64
2022/01/25 01:46:41;;;;;;;10.07;6.23;;;;;;;-5.80;63.95;101623.87;1636178;86;21051;-64
2022/01/25 01:49:02;;;;;;;7.67;5.53;;;;;;;-5.80;64.16;101618.67;1629963;86;21078;-64
2022/01/25 01:51:34;;;;;;;10.60;6.30;;;;;;;-5.76;64.29;101622.02;1634579;86;21005;-62
2022/01/25 01:54:08;;;;;;;7.90;5.53;;;;;;;-5.77;63.73;101615.11;1633955;86;20989;-63
2022/01/25 01:56:36;;;;;;;8.37;5.50;;;;;;;-5.88;63.62;101605.95;1639648;86;21488;-63
2022/01/25 01:59:08;;;;;;;8.57;5.60;;;;;;;-5.83;63.79;101617.47;1639404;86;21041;-62
2022/01/25 02:01:37;;;;;;;8.90;6.03;;;;;;;-5.89;63.67;101612.48;1632724;86;21099;-62
2022/01/25 02:04:06;;;;;;;12.70;8.37;;;;;;;-6.04;64.49;101613.88;1634267;86;21222;-66
2022/01/25 02:06:33;;;;;;;12.40;6.37;;;;;;;-6.16;64.84;101596.97;1627853;86;21024;-62
2022/01/25 02:09:00;;;;;;;14.30;7.62;;;;;;;-6.06;65.29;101613.08;1632501;86;21108;-63
2022/01/25 02:11:26;;;;;;;9.25;6.70;;;;;;;-6.03;65.34;101609.52;1629580;86;21008;-63
2022/01/25 02:13:53;;;;;;;;;;;;;;;-6.03;65.51;101603.03;1636132;86;21044;-62
2022/01/25 02:16:40;;;;;;;14.27;6.77;;;;;;;-6.03;65.66;101590.05;1637704;86;20172;-63
2022/01/25 02:24:21;;;;;;;8.93;6.13;;;;;;;-5.97;65.96;101600.23;1632126;86;21183;-62
2022/01/25 02:26:47;;;;;;;13.13;7.77;;;;;;;-5.95;66.23;101604.91;1639894;86;21032;-64
2022/01/25 02:29:13;;;;;;;13.38;8.25;;;;;;;-5.97;66.33;101599.80;1633968;86;21099;-63
2022/01/25 02:31:39;;;;;;;10.70;7.35;;;;;;;-5.99;66.27;101595.11;1631860;86;21539;-64
2022/01/25 02:34:06;;;;;;;12.70;8.10;;;;;;;-6.00;66.25;101595.16;1597580;87;21558;-62
2022/01/25 02:36:32;;;;;;;13.70;6.83;;;;;;;-6.04;66.73;101588.38;1636511;86;21484;-64
2022/01/25 02:39:00;;;;;;;14.00;6.20;;;;;;;-6.07;66.76;101587.55;1634267;86;21063;-63
2022/01/25 02:41:26;;;;;;;13.03;8.70;;;;;;;-6.08;66.85;101592.81;1636517;86;21082;-63
2022/01/25 02:43:52;;;;;;;10.13;6.17;;;;;;;-6.10;66.77;101590.27;1620080;87;21053;-65
2022/01/25 02:48:29;;;;;;;13.00;7.20;;;;;;;-6.09;66.98;101588.05;1622446;87;21052;-62
2022/01/25 02:48:54;;;;;;;10.70;5.57;;;;;;;-6.07;67.13;101578.92;1626580;87;21071;-62
2022/01/25 02:51:28;;;;;;;12.90;7.80;;;;;;;-6.03;67.24;101570.13;1626161;87;21202;-64
2022/01/25 02:53:58;;;;;;;10.03;7.17;;;;;;;-5.99;67.50;101569.58;1595373;88;21070;-65
2022/01/25 02:56:26;;;;;;;11.07;6.87;;;;;;;-5.98;67.39;101574.72;1629445;86;21109;-63
2022/01/25 02:58:53;;;;;;;11.03;7.07;;;;;;;-5.99;67.21;101561.36;1619856;87;21545;-63
2022/01/25 03:01:21;;;;;;;12.03;7.27;;;;;;;-6.02;67.26;101559.31;1619400;87;21622;-63
2022/01/25 03:03:48;;;;;;;12.10;7.80;;;;;;;-6.02;67.31;101556.26;1614861;87;21066;-63
2022/01/25 03:06:20;;;;;;;9.00;6.53;;;;;;;-5.99;67.45;101552.70;1615413;87;21710;-62
2022/01/25 03:08:48;;;;;;;10.90;5.93;;;;;;;-5.95;67.92;101551.23;1614264;87;21129;-63
2022/01/25 03:11:17;;;;;;;8.93;5.47;;;;;;;-5.87;67.76;101544.02;1614681;87;21043;-63
2022/01/25 03:13:51;;;;;;;16.03;8.40;;;;;;;-5.84;67.66;101548.23;1617290;87;21643;-64
2022/01/25 03:16:28;;;;;;;8.93;6.43;;;;;;;-5.80;67.41;101551.16;1618928;87;21098;-62
2022/01/25 03:18:50;;;;;;;10.47;7.13;;;;;;;-5.81;67.44;101549.90;1615636;87;22961;-64
2022/01/25 03:23:57;;;;;;;11.13;6.73;;;;;;;-5.91;67.84;101544.19;1608074;86;21091;-63
2022/01/25 03:26:25;;;;;;;13.73;8.07;;;;;;;-5.98;68.00;101538.83;1621344;87;21083;-64
2022/01/25 03:28:54;;;;;;;14.27;8.70;;;;;;;-5.99;68.32;101535.39;1619576;87;21066;-62
2022/01/25 03:31:20;;;;;;;13.47;8.97;;;;;;;-5.98;68.53;101529.28;1614771;87;21126;-63
2022/01/25 03:33:47;;;;;;;9.93;7.00;;;;;;;-5.92;68.70;101530.33;1614531;87;21103;-63
2022/01/25 03:36:15;;;;;;;10.90;6.40;;;;;;;-5.84;68.66;101529.22;1619390;87;21073;-64
2022/01/25 03:38:42;;;;;;;12.30;8.00;;;;;;;-5.81;67.83;101526.07;1615363;87;21064;-65
2022/01/25 03:41:12;;;;;;;9.63;6.65;;;;;;;-5.83;67.33;101523.98;1622207;87;21130;-64
2022/01/25 03:43:39;;;;;;;10.00;7.10;;;;;;;-5.85;67.12;101513.27;1615407;87;21056;-63
2022/01/25 03:51:00;;;;;;;9.70;5.97;;;;;;;-5.85;67.52;101501.58;1621257;87;21167;-64
2022/01/25 03:53:26;;;;;;;11.80;7.33;;;;;;;-5.87;67.45;101501.63;1615395;87;21315;-66
2022/01/25 03:55:52;;;;;;;10.65;7.78;;;;;;;-6.30;67.71;101426.59;1613343;87;21053;-64
2022/01/25 03:58:20;;;;;;;9.98;6.40;;;;;;;-5.91;67.98;101494.39;1618713;87;21611;-63
2022/01/25 04:00:46;;;;;;;11.97;7.17;;;;;;;-5.84;68.17;101489.81;1613789;87;21103;-66
2022/01/25 04:08:10;;;;;;;10.83;7.13;;;;;;;-5.85;68.25;101475.61;1622157;87;21075;-64
2022/01/25 04:10:37;;;;;;;7.83;6.43;;;;;;;-5.83;68.18;101475.94;1614396;87;21057;-63
2022/01/25 04:13:04;;;;;;;12.60;7.57;;;;;;;-5.81;68.02;101480.63;1615257;85;21045;-64
2022/01/25 04:15:31;;;;;;;10.70;6.63;;;;;;;-5.79;67.74;101481.88;1614769;87;21116;-62
2022/01/25 04:20:53;;;;;;;7.37;5.47;;;;;;;-5.70;67.59;101486.28;1614763;87;20181;-64
2022/01/25 04:25:55;;;;;;;8.83;5.80;;;;;;;-5.69;66.79;101477.59;1608227;88;21154;-63
2022/01/25 04:28:20;;;;;;;9.25;6.75;;;;;;;-5.73;66.90;101478.59;1601745;87;21051;-65
2022/01/25 04:30:47;;;;;;;9.43;6.42;;;;;;;-5.73;67.01;101487.67;1588103;88;21121;-63
2022/01/25 04:33:24;;;;;;;9.30;6.92;;;;;;;-5.72;66.90;101492.44;1602515;88;21056;-63
2022/01/25 04:35:58;;;;;;;11.53;6.97;;;;;;;-5.73;66.75;101488.14;1613302;87;21093;-62
2022/01/25 04:49:22;;;;;;;10.47;6.93;;;;;;;-5.84;66.39;101466.44;1599537;87;21083;-65
2022/01/25 04:59:31;;;;;;;9.57;5.63;;;;;;;-5.78;66.36;101463.64;1612602;88;21057;-63
2022/01/25 05:01:54;;;;;;;8.63;6.40;;;;;;;-5.77;66.64;101461.42;1625008;87;21060;-64
2022/01/25 05:04:27;;;;;;;6.97;5.33;;;;;;;-5.75;66.36;101454.88;1612895;87;21009;-60
2022/01/25 05:06:49;;;;;;;7.27;5.23;;;;;;;-5.72;66.30;101459.98;1594946;88;21071;-64
2022/01/25 05:09:16;;;;;;;9.90;6.40;;;;;;;-5.76;65.73;101453.20;1601664;88;21078;-62
2022/01/25 05:11:46;;;;;;;8.37;6.83;;;;;;;-5.84;65.34;101454.75;1611737;88;21148;-62
2022/01/25 05:16:48;;;;;;;8.50;5.80;;;;;;;-5.89;66.25;101457.99;1612631;87;21056;-63
2022/01/25 05:22:57;;;;;;;7.97;6.07;;;;;;;-5.87;66.26;101446.64;1758854;78;22268;-62
2022/01/25 05:25:23;;;;;;;8.95;6.35;;;;;;;-5.89;65.96;101453.64;1692835;83;21025;-62
2022/01/25 05:27:49;;;;;;;9.35;6.00;;;;;;;-5.88;66.02;101449.28;1692565;83;21210;-65
2022/01/25 05:30:15;;;;;;;9.75;6.10;;;;;;;-5.86;66.28;101444.88;1693792;83;21014;-61
2022/01/25 05:32:41;;;;;;;6.87;5.58;;;;;;;-5.82;66.50;101441.72;1693236;83;21136;-62
2022/01/25 05:35:08;;;;;;;7.20;5.55;;;;;;;-5.82;66.19;101440.42;1694911;80;21045;-62
2022/01/25 05:37:41;;;;;;;7.72;5.20;;;;;;;-5.80;65.86;101447.27;1696976;83;21064;-63
2022/01/25 05:40:07;;;;;;;5.97;5.00;;;;;;;-5.82;65.47;101439.99;1700432;83;21438;-62
2022/01/25 05:47:41;;;;;;;5.50;4.47;;;;;;;-5.96;65.17;101442.27;1651776;85;21525;-71
2022/01/25 05:50:08;;;;;;;7.17;5.00;;;;;;;-5.97;65.29;101428.88;1637923;86;21110;-66
2022/01/25 05:52:34;;;;;;;6.30;4.80;;;;;;;-5.91;65.22;101429.94;1636849;86;21125;-68
2022/01/25 05:55:01;;;;;;;6.35;5.08;;;;;;;-5.92;65.23;101426.47;1639682;85;21824;-63
2022/01/25 05:57:28;;;;;;;7.63;5.97;;;;;;;-5.91;65.44;101433.83;1635045;86;21047;-68
2022/01/25 05:59:55;;;;;;;8.90;6.20;;;;;;;-5.92;65.71;101432.12;1660798;85;21034;-69
2022/01/25 06:02:23;;;;;;;;;;;;;;;-5.88;65.98;101437.59;1692816;83;21106;-68
2022/01/25 06:04:50;;;;;;;7.67;5.60;;;;;;;-5.90;65.37;101436.34;1688834;83;20280;-66
2022/01/25 06:07:16;;;;;;;8.90;5.80;;;;;;;-6.02;65.23;101439.89;1692900;83;21025;-66
2022/01/25 06:09:44;;;;;;;8.97;6.47;;;;;;;-6.10;65.51;101434.52;1692507;83;20984;-67
2022/01/25 06:12:12;;;;;;;9.38;7.50;;;;;;;-6.12;65.67;101446.71;1662521;84;21113;-67
2022/01/25 06:14:39;;;;;;;13.07;7.67;;;;;;;-6.14;65.48;101449.81;1653787;86;20994;-67
2022/01/25 06:17:07;;;;;;;10.27;7.47;;;;;;;-6.14;65.71;101437.27;1671446;84;21132;-66
2022/01/25 06:19:33;;;;;;;9.10;6.47;;;;;;;-6.12;65.77;101438.92;1641210;85;21043;-68
2022/01/25 06:21:59;;;;;;;10.10;6.80;;;;;;;-6.05;65.99;101434.80;1631456;85;21085;-64
2022/01/25 06:24:25;;;;;;;7.55;6.00;;;;;;;-5.99;66.04;101427.66;1692765;81;20996;-65
2022/01/25 06:26:51;;;;;;;10.03;6.83;;;;;;;-5.95;65.87;101424.47;1690834;83;21088;-61
2022/01/25 06:29:19;;;;;;;7.05;5.83;;;;;;;-5.97;65.53;101421.95;1698006;83;21084;-61
2022/01/25 06:31:50;;;;;;;9.63;5.87;;;;;;;-5.95;65.38;101424.47;1696958;83;21056;-62
2022/01/25 06:34:16;;;;;;;8.43;5.83;;;;;;;-5.93;65.10;101421.36;1700088;81;21091;-62
2022/01/25 06:36:43;;;;;;;7.23;5.23;;;;;;;-5.94;64.88;101423.55;1689145;83;21160;-62
2022/01/25 06:39:10;;;;;;;8.25;5.87;;;;;;;-5.96;64.94;101426.69;1691535;83;21237;-62
2022/01/25 06:41:37;;;;;;;8.20;5.83;;;;;;;-5.97;64.73;101421.09;1691244;83;21137;-63
2022/01/25 06:44:05;;;;;;;9.17;7.47;;;;;;;-5.98;64.95;101418.11;1658081;83;21482;-62
2022/01/25 06:46:31;;;;;;;8.93;6.87;;;;;;;-5.93;65.11;101410.52;1688570;83;20998;-62
2022/01/25 06:48:58;;;;;;;11.35;6.85;;;;;;;-5.90;65.16;101414.28;1694521;83;21026;-65
2022/01/25 06:51:24;;;;;;;11.03;7.58;;;;;;;-5.90;65.10;101404.36;1692705;83;21589;-65
2022/01/25 06:53:50;;;;;;;8.15;6.47;;;;;;;-5.87;65.35;101402.95;1691533;83;21126;-62
2022/01/25 06:56:15;;;;;;;9.30;7.42;;;;;;;-5.89;64.91;101398.27;1706556;82;21720;-62
2022/01/25 06:58:42;;;;;;;9.70;7.17;;;;;;;-5.93;64.99;101388.45;1711196;82;21109;-62
2022/01/25 07:01:08;;;;;;;9.33;6.92;;;;;;;-5.96;65.52;101388.58;1692316;82;21559;-59
2022/01/25 07:03:34;;;;;;;11.63;8.05;;;;;;;-5.98;65.61;101398.18;1675563;84;21041;-59
2022/01/25 07:06:00;;;;;;;12.10;7.70;;;;;;;-5.97;65.64;101396.42;1675452;84;21110;-59
2022/01/25 07:08:27;;;;;;;7.47;6.70;;;;;;;-5.98;65.49;101392.98;1670572;84;21123;-60
2022/01/25 07:10:54;;;;;;;8.98;6.70;;;;;;;-6.01;65.38;101387.89;1670158;84;21052;-61
2022/01/25 07:13:20;;;;;;;7.97;5.43;;;;;;;-6.03;65.28;101392.77;1678473;84;21536;-60
2022/01/25 07:15:47;;;;;;;9.05;6.50;;;;;;;-6.03;64.84;101391.00;1640078;86;22186;-60
2022/01/25 07:18:15;;;;;;;13.20;7.22;;;;;;;-6.10;64.65;101384.37;1673425;84;21809;-70
2022/01/25 07:20:41;;;;;;;10.97;7.33;;;;;;;-6.14;65.15;101392.71;1678127;84;21027;-68
2022/01/25 07:23:08;;;;;;;8.95;6.20;;;;;;;-6.16;65.21;101381.54;1682096;83;21571;-70
2022/01/25 07:25:34;;;;;;;6.03;5.37;;;;;;;-6.13;65.42;101380.58;1690272;83;21517;-68
2022/01/25 07:28:00;;;;;;;8.15;5.20;;;;;;;-6.11;65.08;101378.77;1694768;83;21522;-60
2022/01/25 07:30:26;;;;;;;7.70;5.97;;;;;;;-6.08;65.35;101383.39;1691221;83;21024;-64
2022/01/25 07:32:52;;;;;;;6.40;5.22;;;;;;;-6.02;65.08;101375.00;1693316;83;21534;-62
2022/01/25 07:35:19;;;;;;;8.35;6.00;;;;;;;-5.96;65.28;101374.30;1658491;83;21263;-62
2022/01/25 07:37:45;;;;;;;9.53;6.72;;;;;;;-5.85;65.33;101369.98;1656368;85;20998;-62
2022/01/25 07:40:13;;;;;;;11.33;8.05;;;;;;;-5.82;64.34;101372.48;1653256;85;21057;-63
2022/01/25 07:42:40;;;;;;;9.87;7.20;;;;;;;-5.95;64.00;101372.08;1653571;85;21014;-63
2022/01/25 07:45:11;;;;;;;8.67;6.50;;;;;;;-6.03;64.18;101366.80;1660499;84;22187;-63
2022/01/25 07:47:37;;;;;;;7.83;6.93;;;;;;;-6.06;64.77;101361.28;1664170;85;21688;-62
2022/01/25 07:50:06;;;;;;;11.00;7.90;;;;;;;-5.97;65.42;101357.48;1659938;85;21057;-63
2022/01/25 07:52:33;;;;;;;11.27;8.07;;;;;;;-5.88;64.78;101363.17;1664516;85;21060;-64
2022/01/25 07:54:59;;;;;;;8.95;7.00;;;;;;;-5.91;64.33;101355.94;1661255;85;21168;-62
2022/01/25 07:57:25;;;;;;;14.13;7.62;;;;;;;-5.94;64.67;101355.59;1663267;83;21065;-63
2022/01/25 07:59:52;;;;;;;11.95;8.98;;;;;;;-5.91;64.58;101353.34;1677650;85;21054;-63
2022/01/25 08:02:20;;;;;;;10.30;7.33;;;;;;;-5.91;64.45;101345.09;1663777;83;21113;-61
2022/01/25 08:04:47;;;;;;;13.50;8.97;;;;;;;-5.87;64.69;101348.42;1659217;85;21125;-65
2022/01/25 08:07:17;;;;;;;13.40;8.53;;;;;;;-5.84;64.68;101339.66;1663926;85;21565;-62
2022/01/25 08:09:44;;;;;;;10.43;8.60;;;;;;;-5.67;64.58;101336.83;1660677;85;21552;-63
2022/01/25 08:12:11;;;;;;;12.20;8.53;;;;;;;-5.59;64.13;101330.48;1664115;84;21558;-63
2022/01/25 08:14:43;;;;;;;17.27;11.50;;;;;;;-5.56;63.70;101337.68;1662798;85;21108;-62
2022/01/25 08:17:09;;;;;;;12.93;10.70;;;;;;;-5.55;63.57;101338.55;1680708;85;21048;-63
2022/01/25 08:19:36;;;;;;;17.37;10.77;;;;;;;-5.52;63.33;101328.02;1677267;85;21108;-62
2022/01/25 08:22:02;;;;;;;18.20;10.65;;;;;;;-5.47;63.11;101316.53;1614070;86;21105;-60
2022/01/25 08:24:30;;;;;;;12.57;9.10;;;;;;;-5.38;62.90;101319.69;1672040;85;21605;-61
2022/01/25 08:26:56;;;;;;;14.95;10.50;;;;;;;-5.35;62.68;101314.34;1658335;85;21127;-62
2022/01/25 08:29:22;;;;;;;13.50;9.08;;;;;;;-5.34;62.59;101315.59;1662775;85;21048;-64
2022/01/25 08:31:48;;;;;;;15.13;11.00;;;;;;;-5.32;62.69;101312.94;1623325;86;21033;-63
2022/01/25 08:34:14;;;;;;;13.00;7.83;;;;;;;-5.32;62.23;101320.27;1679042;83;21005;-62
2022/01/25 08:36:41;;;;;;;13.78;10.08;;;;;;;-5.31;62.25;101314.18;1688882;83;21509;-64
2022/01/25 08:39:08;;;;;;;16.30;10.30;;;;;;;-5.30;62.53;101305.92;1692769;83;21341;-64
2022/01/25 08:41:35;;;;;;;19.00;11.83;;;;;;;-5.26;62.70;101303.58;1684949;83;21722;-64
2022/01/25 08:44:02;;;;;;;16.63;11.43;;;;;;;-5.20;62.61;101306.38;1681993;83;21044;-64
2022/01/25 08:46:29;;;;;;;;;;;;;;;-5.25;62.16;101312.25;1699943;83;21045;-65
2022/01/25 08:48:55;;;;;;;18.23;12.17;;;;;;;-5.33;62.80;101306.91;1693559;83;20142;-63
2022/01/25 08:51:21;;;;;;;18.10;13.20;;;;;;;-5.41;62.75;101305.05;1693809;83;21001;-66
2022/01/25 08:53:48;;;;;;;21.73;13.03;;;;;;;-5.46;62.72;101297.91;1671601;83;21037;-63
2022/01/25 08:56:15;;;;;;;15.37;12.03;;;;;;;-5.48;63.12;101294.08;1696832;83;21160;-63
2022/01/25 08:58:41;;;;;;;17.17;11.87;;;;;;;-5.44;63.54;101292.62;1684788;83;21020;-64
2022/01/25 09:01:08;;;;;;;18.60;13.68;;;;;;;-5.41;63.57;101282.96;1671399;84;21015;-63
2022/01/25 09:03:36;;;;;;;25.67;13.10;;;;;;;-5.43;63.23;101280.05;1666500;85;21521;-63
2022/01/25 09:06:04;;;;;;;19.43;12.50;;;;;;;-5.54;63.25;101273.55;1662900;85;21413;-64
2022/01/25 09:08:30;;;;;;;17.17;11.97;;;;;;;-5.56;63.94;101269.30;1669688;85;21121;-63
2022/01/25 09:10:59;;;;;;;20.12;12.47;;;;;;;-5.56;63.87;101266.70;1654002;85;21104;-64
2022/01/25 09:13:26;;;;;;;21.60;13.63;;;;;;;-5.53;63.88;101263.99;1675745;85;20998;-66
2022/01/25 09:15:52;;;;;;;21.30;12.57;;;;;;;-5.45;63.87;101259.31;1666067;85;21268;-63
2022/01/25 09:18:18;;;;;;;18.98;13.60;;;;;;;-5.36;63.61;101257.64;1669868;85;20995;-63
2022/01/25 09:20:45;;;;;;;16.25;11.48;;;;;;;-5.29;63.54;101246.09;1668566;85;21066;-63
2022/01/25 09:23:15;;;;;;;21.75;13.72;;;;;;;-5.18;63.25;101246.08;1651929;85;21130;-62
2022/01/25 09:25:41;;;;;;;23.63;12.53;;;;;;;-5.11;63.00;101239.71;1630618;86;21526;-63
2022/01/25 09:28:07;;;;;;;17.07;12.23;;;;;;;-5.01;62.57;101238.42;1632296;86;21068;-65
2022/01/25 09:30:33;;;;;;;17.35;13.00;;;;;;;-4.96;62.44;101239.05;1633273;86;21729;-66
2022/01/25 09:32:59;;;;;;;27.15;14.58;;;;;;;-4.89;62.22;101235.73;1634559;86;21017;-65
2022/01/25 09:35:26;;;;;;;18.55;11.75;;;;;;;-4.90;61.45;101235.33;1679576;83;21548;-64
2022/01/25 09:37:52;;;;;;;19.32;14.30;;;;;;;-4.94;61.63;101236.39;1681681;84;21019;-66
2022/01/25 09:40:20;;;;;;;;;;;;;;;-5.01;61.44;101233.23;1677212;84;21068;-66
2022/01/25 09:42:51;;;;;;;24.63;17.70;;;;;;;-5.10;61.94;101237.05;1679127;84;20137;-66
2022/01/25 09:45:16;;;;;;;29.83;17.40;;;;;;;-5.24;62.14;101231.59;1665674;84;21499;-64
2022/01/25 09:47:42;;;;;;;21.42;14.90;;;;;;;-5.26;62.65;101227.38;1632165;86;20994;-65
2022/01/25 09:50:12;;;;;;;21.75;17.27;;;;;;;-5.26;62.09;101217.81;1675752;84;21051;-64
2022/01/25 09:52:41;;;;;;;23.60;16.30;;;;;;;-5.24;62.84;101208.19;1683215;84;21020;-64
2022/01/25 09:55:18;;;;;;;21.50;14.63;;;;;;;-5.15;62.68;101203.06;1682326;84;21054;-62
2022/01/25 09:57:46;;;;;;;23.55;15.83;;;;;;;-5.06;61.81;101200.53;1685718;84;21134;-63
2022/01/25 10:00:19;;;;;;;27.30;17.83;;;;;;;-5.04;61.77;101193.52;1681260;84;21066;-62
2022/01/25 10:05:45;;;;;;;28.13;16.47;;;;;;;-4.99;61.74;101178.53;1643389;86;20994;-61
2022/01/25 10:08:16;;;;;;;30.57;20.03;;;;;;;-4.96;61.68;101180.55;1643447;86;21085;-62
2022/01/25 10:10:48;;;;;;;28.67;18.67;;;;;;;-4.91;61.54;101186.39;1669301;84;21059;-62
2022/01/25 10:13:23;;;;;;;32.80;18.53;;;;;;;-4.83;61.14;101186.05;1636724;86;21052;-61
2022/01/25 10:16:09;;;;;;;29.90;18.93;;;;;;;-4.74;60.93;101180.90;1677031;84;21047;-61
2022/01/25 10:18:59;;;;;;;28.17;18.30;;;;;;;-4.67;60.98;101169.30;1682139;84;21081;-62
2022/01/25 10:21:36;;;;;;;25.37;17.30;;;;;;;-4.57;60.37;101173.16;1676358;84;20976;-63
2022/01/25 10:24:10;;;;;;;23.92;16.90;;;;;;;-4.51;60.19;101170.27;1640564;86;21119;-64
2022/01/25 10:26:41;;;;;;;26.07;17.17;;;;;;;-4.41;59.44;101175.05;1668588;84;21087;-63
2022/01/25 10:29:12;;;;;;;20.17;15.13;;;;;;;-4.37;59.28;101171.38;1678393;84;21072;-64
2022/01/25 10:31:44;;;;;;;26.17;17.00;;;;;;;-4.37;59.48;101167.48;1669110;84;20993;-62
2022/01/25 10:34:14;;;;;;;29.50;16.83;;;;;;;-4.39;58.96;101164.11;1683008;81;21022;-63
2022/01/25 10:36:46;;;;;;;30.60;18.80;;;;;;;-4.44;58.18;101167.41;1676240;84;21079;-63
2022/01/25 10:39:22;;;;;;;28.97;19.33;;;;;;;-4.51;58.54;101161.16;1643376;86;21021;-64
2022/01/25 10:41:50;;;;;;;28.20;15.32;;;;;;;-4.55;58.86;101144.47;1686124;84;21036;-63
2022/01/25 10:44:16;;;;;;;26.70;14.60;;;;;;;-4.54;58.65;101144.41;1638680;85;21592;-63
2022/01/25 10:46:42;;;;;;;23.18;14.85;;;;;;;-4.57;58.43;101136.73;1645291;86;21030;-63
2022/01/25 10:49:14;;;;;;;25.80;16.00;;;;;;;-4.59;58.50;101134.66;1681201;84;21156;-63
2022/01/25 10:51:45;;;;;;;27.20;16.70;;;;;;;-4.60;58.35;101134.27;1683689;84;21044;-62
2022/01/25 10:54:21;;;;;;;29.73;17.23;;;;;;;-4.64;58.83;101116.28;1682338;84;21481;-63
2022/01/25 10:56:57;;;;;;;29.25;19.35;;;;;;;-4.59;58.64;101125.55;1673606;84;21700;-64
2022/01/25 10:59:28;;;;;;;30.27;17.70;;;;;;;-4.52;58.64;101124.36;1686619;83;21048;-62
2022/01/25 11:02:06;;;;;;;24.70;15.43;;;;;;;-4.45;58.25;101122.30;1684524;83;21115;-63
2022/01/25 11:04:39;;;;;;;22.40;16.50;;;;;;;-4.44;58.43;101120.56;1637120;86;21097;-63
2022/01/25 11:07:09;;;;;;;26.10;16.10;;;;;;;-4.39;58.42;101118.56;1642217;86;21033;-63
2022/01/25 11:09:41;;;;;;;27.43;18.37;;;;;;;-4.36;58.51;101114.05;1681406;84;22252;-62
2022/01/25 11:12:13;;;;;;;24.33;17.40;;;;;;;-4.30;58.62;101105.11;1671094;84;21526;-62
2022/01/25 11:14:50;;;;;;;29.90;18.60;;;;;;;-4.30;58.52;101106.41;1680723;84;21154;-61
2022/01/25 11:17:18;;;;;;;23.45;16.05;;;;;;;-4.36;58.15;101098.44;1680615;84;21859;-63
2022/01/25 11:19:44;;;;;;;24.03;15.93;;;;;;;-4.39;58.39;101093.83;1681305;84;21022;-62
2022/01/25 11:22:19;;;;;;;22.62;14.83;;;;;;;-4.47;58.25;101090.30;1683988;84;21063;-63
2022/01/25 11:24:42;;;;;;;22.50;15.33;;;;;;;-4.51;58.50;101085.70;1682953;84;20981;-64
2022/01/25 11:27:10;;;;;;;19.87;13.00;;;;;;;-4.52;58.49;101090.97;1682594;84;21054;-63
2022/01/25 11:29:39;;;;;;;22.93;15.67;;;;;;;-4.54;58.52;101089.77;1656442;84;21150;-63
2022/01/25 11:32:18;;;;;;;24.53;16.60;;;;;;;-4.56;58.37;101095.50;1679849;84;21075;-64
2022/01/25 11:34:45;;;;;;;;;;;;;;;-4.58;58.39;101090.80;1672153;84;21047;-62
2022/01/25 11:37:12;;;;;;;23.60;15.20;;;;;;;-4.54;58.49;101083.27;1676053;84;20139;-64
2022/01/25 11:39:46;;;;;;;27.13;15.47;;;;;;;-4.56;58.64;101079.02;1674409;84;21421;-63
2022/01/25 11:42:18;;;;;;;26.07;16.90;;;;;;;-4.55;58.62;101071.16;1680453;84;21079;-61
2022/01/25 11:44:54;;;;;;;23.20;15.90;;;;;;;-4.58;58.60;101067.38;1670933;84;21553;-64
2022/01/25 11:47:31;;;;;;;22.70;13.13;;;;;;;-4.56;58.88;101060.37;1679890;84;21066;-63
2022/01/25 11:50:08;;;;;;;26.40;17.27;;;;;;;-4.55;58.94;101049.50;1642361;86;21046;-63
2022/01/25 11:52:36;;;;;;;23.80;15.53;;;;;;;-4.59;58.97;101039.70;1680499;84;21008;-62
2022/01/25 11:55:23;;;;;;;23.43;15.80;;;;;;;-4.65;58.98;101035.23;1666650;84;21133;-64
2022/01/25 11:58:01;;;;;;;30.65;16.35;;;;;;;-4.79;59.41;101034.60;1674899;84;21578;-63
2022/01/25 12:00:43;;;;;;;28.43;15.83;;;;;;;-4.92;59.84;101025.23;1673267;84;21153;-63
2022/01/25 12:03:32;;;;;;;23.77;18.07;;;;;;;-4.95;60.24;101022.80;1701178;82;21059;-63
2022/01/25 12:06:06;;;;;;;25.57;17.73;;;;;;;-4.94;60.41;101014.89;1701059;82;21471;-64
2022/01/25 12:11:43;;;;;;;22.50;16.37;;;;;;;-4.82;60.58;101010.89;1691192;82;21062;-64
2022/01/25 12:14:28;;;;;;;26.33;16.50;;;;;;;-4.77;60.27;101006.76;1678767;83;21026;-63
2022/01/25 12:17:06;;;;;;;27.37;16.07;;;;;;;-4.77;60.16;101014.09;1680707;83;21097;-64
2022/01/25 12:19:52;;;;;;;21.97;16.57;;;;;;;-4.76;60.06;101005.86;1688258;83;21052;-62
2022/01/25 12:22:39;;;;;;;29.23;16.07;;;;;;;-4.79;60.03;101003.39;1684754;83;21089;-63
2022/01/25 12:25:22;;;;;;;28.30;15.43;;;;;;;-4.76;60.14;100999.35;1681504;84;21056;-64
2022/01/25 12:27:56;;;;;;;28.43;15.97;;;;;;;-4.75;60.05;100997.95;1671379;84;21277;-63
2022/01/25 12:30:38;;;;;;;20.77;14.57;;;;;;;-4.79;60.29;100991.69;1679308;84;21028;-64
2022/01/25 12:33:24;;;;;;;28.33;16.83;;;;;;;-4.75;60.55;100984.11;1683260;84;21047;-62
2022/01/25 12:36:04;;;;;;;23.87;14.50;;;;;;;-4.67;60.56;100980.70;1683231;84;21461;-63
2022/01/25 12:38:52;;;;;;;20.73;13.07;;;;;;;-4.61;60.48;100980.39;1647796;86;21067;-60
2022/01/25 12:41:24;;;;;;;21.10;15.50;;;;;;;-4.59;60.20;100975.13;1681163;84;21155;-64
2022/01/25 12:43:54;;;;;;;22.53;14.23;;;;;;;-4.60;60.07;100974.26;1683903;84;21736;-63
2022/01/25 12:46:24;;;;;;;23.50;17.10;;;;;;;-4.57;60.33;100972.81;1686129;84;21084;-64
2022/01/25 12:49:05;;;;;;;23.93;13.93;;;;;;;-4.56;60.19;100961.50;1670477;84;21515;-63
2022/01/25 12:51:36;;;;;;;26.20;13.17;;;;;;;-4.59;60.39;100955.14;1675661;84;20983;-63
2022/01/25 12:54:10;;;;;;;21.10;13.90;;;;;;;-4.61;60.57;100959.58;1682576;84;20976;-63
2022/01/25 12:56:47;;;;;;;26.87;15.20;;;;;;;-4.60;60.41;100959.11;1677891;84;21535;-63
2022/01/25 12:59:21;;;;;;;20.72;14.38;;;;;;;-4.63;60.40;100965.33;1672482;84;21088;-62
2022/01/25 13:01:50;;;;;;;21.73;14.57;;;;;;;-4.69;60.53;100955.20;1676694;84;21046;-65
2022/01/25 13:04:17;;;;;;;18.23;13.23;;;;;;;-4.71;60.64;100960.94;1681062;84;21517;-64
2022/01/25 13:06:48;;;;;;;21.23;13.65;;;;;;;-4.73;60.58;100966.23;1678910;84;21032;-63
2022/01/25 13:09:30;;;;;;;21.70;14.20;;;;;;;-4.72;60.99;100964.47;1674678;84;21088;-65
2022/01/25 13:17:14;;;;;;;23.20;13.37;;;;;;;-4.81;61.08;100952.74;1676196;84;21036;-63
2022/01/25 13:19:50;;;;;;;24.27;15.37;;;;;;;-4.83;61.10;100955.87;1684366;84;21131;-63
2022/01/25 13:22:33;;;;;;;21.87;15.00;;;;;;;-4.81;61.25;100955.34;1678730;84;21082;-63
2022/01/25 13:27:49;;;;;;;24.90;13.90;;;;;;;-4.73;61.00;100951.93;1679919;84;21090;-62